sensor_id;sensor_type;location;lat;lon;timestamp;temperature;humidity
44271;DHT22;29963;44.594;11.368;2023-10-09T00:01:05;22.00;99.90
44271;DHT22;29963;44.594;11.368;2023-10-09T00:03:44;21.90;99.90
44271;DHT22;29963;44.594;11.368;2023-10-09T00:06:10;21.80;99.90
44271;DHT22;29963;44.594;11.368;2023-10-09T00:08:38;21.80;99.90
44271;DHT22;29963;44.594;11.368;2023-10-09T00:11:05;21.70;99.90
44271;DHT22;29963;44.594;11.368;2023-10-09T00:13:44;21.50;99.90
44271;DHT22;29963;44.594;11.368;2023-10-09T00:16:22;21.40;99.90
44271;DHT22;29963;44.594;11.368;2023-10-09T00:19:05;21.30;99.90
44271;DHT22;29963;44.594;11.368;2023-10-09T00:21:51;21.30;99.90
44271;DHT22;29963;44.594;11.368;2023-10-09T00:24:20;21.40;99.90
44271;DHT22;29963;44.594;11.368;2023-10-09T00:26:50;21.50;99.90
44271;DHT22;29963;44.594;11.368;2023-10-09T00:29:17;21.50;99.90
44271;DHT22;29963;44.594;11.368;2023-10-09T00:31:54;21.60;99.90
44271;DHT22;29963;44.594;11.368;2023-10-09T00:34:29;21.60;99.90
44271;DHT22;29963;44.594;11.368;2023-10-09T00:36:55;21.60;99.90
44271;DHT22;29963;44.594;11.368;2023-10-09T00:39:23;21.50;99.90
44271;DHT22;29963;44.594;11.368;2023-10-09T00:42:04;21.30;99.90
44271;DHT22;29963;44.594;11.368;2023-10-09T00:44:32;21.20;99.90
44271;DHT22;29963;44.594;11.368;2023-10-09T00:47:15;21.20;99.90
44271;DHT22;29963;44.594;11.368;2023-10-09T00:50:04;21.20;99.90
44271;DHT22;29963;44.594;11.368;2023-10-09T00:52:52;21.20;99.90
44271;DHT22;29963;44.594;11.368;2023-10-09T00:55:26;21.20;99.90
44271;DHT22;29963;44.594;11.368;2023-10-09T00:58:15;21.20;99.90
44271;DHT22;29963;44.594;11.368;2023-10-09T01:00:49;21.20;99.90
44271;DHT22;29963;44.594;11.368;2023-10-09T01:03:18;21.10;99.90
44271;DHT22;29963;44.594;11.368;2023-10-09T01:05:56;21.00;99.90
44271;DHT22;29963;44.594;11.368;2023-10-09T01:08:39;20.90;99.90
44271;DHT22;29963;44.594;11.368;2023-10-09T01:11:06;20.70;99.90
44271;DHT22;29963;44.594;11.368;2023-10-09T01:13:41;20.60;99.90
44271;DHT22;29963;44.594;11.368;2023-10-09T01:16:21;20.40;99.90
44271;DHT22;29963;44.594;11.368;2023-10-09T01:18:52;20.20;99.90
44271;DHT22;29963;44.594;11.368;2023-10-09T01:21:19;20.10;99.90
44271;DHT22;29963;44.594;11.368;2023-10-09T01:23:49;19.90;99.90
44271;DHT22;29963;44.594;11.368;2023-10-09T01:26:25;19.60;99.90
44271;DHT22;29963;44.594;11.368;2023-10-09T01:28:51;19.90;99.90
44271;DHT22;29963;44.594;11.368;2023-10-09T01:31:24;19.90;99.90
44271;DHT22;29963;44.594;11.368;2023-10-09T01:33:52;20.00;99.90
44271;DHT22;29963;44.594;11.368;2023-10-09T01:36:19;20.00;99.90
44271;DHT22;29963;44.594;11.368;2023-10-09T01:39:00;20.00;99.90
44271;DHT22;29963;44.594;11.368;2023-10-09T01:41:27;19.90;99.90
44271;DHT22;29963;44.594;11.368;2023-10-09T01:43:53;19.80;99.90
44271;DHT22;29963;44.594;11.368;2023-10-09T01:46:26;19.60;99.90
44271;DHT22;29963;44.594;11.368;2023-10-09T01:48:51;19.50;99.90
44271;DHT22;29963;44.594;11.368;2023-10-09T01:51:19;19.50;99.90
44271;DHT22;29963;44.594;11.368;2023-10-09T01:53:45;19.50;99.90
44271;DHT22;29963;44.594;11.368;2023-10-09T01:56:20;19.50;99.90
44271;DHT22;29963;44.594;11.368;2023-10-09T01:58:45;19.60;99.90
44271;DHT22;29963;44.594;11.368;2023-10-09T02:01:13;19.50;99.90
44271;DHT22;29963;44.594;11.368;2023-10-09T02:03:40;19.50;99.90
44271;DHT22;29963;44.594;11.368;2023-10-09T02:06:09;19.50;99.90
44271;DHT22;29963;44.594;11.368;2023-10-09T02:08:53;19.50;99.90
44271;DHT22;29963;44.594;11.368;2023-10-09T02:11:19;19.50;99.90
44271;DHT22;29963;44.594;11.368;2023-10-09T02:13:52;19.50;99.90
44271;DHT22;29963;44.594;11.368;2023-10-09T02:16:26;19.50;99.90
44271;DHT22;29963;44.594;11.368;2023-10-09T02:18:55;19.50;99.90
44271;DHT22;29963;44.594;11.368;2023-10-09T02:21:24;19.60;99.90
44271;DHT22;29963;44.594;11.368;2023-10-09T02:24:03;19.80;99.90
44271;DHT22;29963;44.594;11.368;2023-10-09T02:26:31;19.90;99.90
44271;DHT22;29963;44.594;11.368;2023-10-09T02:29:25;20.00;99.90
44271;DHT22;29963;44.594;11.368;2023-10-09T02:31:52;20.10;99.90
44271;DHT22;29963;44.594;11.368;2023-10-09T02:34:18;20.10;99.90
44271;DHT22;29963;44.594;11.368;2023-10-09T02:36:50;20.20;99.90
44271;DHT22;29963;44.594;11.368;2023-10-09T02:39:24;20.20;99.90
44271;DHT22;29963;44.594;11.368;2023-10-09T02:41:53;20.30;99.90
44271;DHT22;29963;44.594;11.368;2023-10-09T02:44:28;20.40;99.90
44271;DHT22;29963;44.594;11.368;2023-10-09T02:46:57;20.30;99.90
44271;DHT22;29963;44.594;11.368;2023-10-09T02:49:24;20.30;99.90
44271;DHT22;29963;44.594;11.368;2023-10-09T02:51:52;20.20;99.90
44271;DHT22;29963;44.594;11.368;2023-10-09T02:54:20;20.20;99.90
44271;DHT22;29963;44.594;11.368;2023-10-09T02:57:00;20.10;99.90
44271;DHT22;29963;44.594;11.368;2023-10-09T02:59:41;20.00;99.90
44271;DHT22;29963;44.594;11.368;2023-10-09T03:02:10;19.90;99.90
44271;DHT22;29963;44.594;11.368;2023-10-09T03:04:36;19.90;99.90
44271;DHT22;29963;44.594;11.368;2023-10-09T03:07:04;19.90;99.90
44271;DHT22;29963;44.594;11.368;2023-10-09T03:09:30;19.90;99.90
44271;DHT22;29963;44.594;11.368;2023-10-09T03:11:59;19.80;99.90
44271;DHT22;29963;44.594;11.368;2023-10-09T03:14:36;19.70;99.90
44271;DHT22;29963;44.594;11.368;2023-10-09T03:17:04;19.60;99.90
44271;DHT22;29963;44.594;11.368;2023-10-09T03:19:33;19.50;99.90
44271;DHT22;29963;44.594;11.368;2023-10-09T03:22:03;19.60;99.90
44271;DHT22;29963;44.594;11.368;2023-10-09T03:24:29;19.60;99.90
44271;DHT22;29963;44.594;11.368;2023-10-09T03:26:57;19.60;99.90
44271;DHT22;29963;44.594;11.368;2023-10-09T03:29:24;19.60;99.90
44271;DHT22;29963;44.594;11.368;2023-10-09T03:31:50;19.60;99.90
44271;DHT22;29963;44.594;11.368;2023-10-09T03:34:18;19.60;99.90
44271;DHT22;29963;44.594;11.368;2023-10-09T03:36:45;19.60;99.90
44271;DHT22;29963;44.594;11.368;2023-10-09T03:39:13;19.60;99.90
44271;DHT22;29963;44.594;11.368;2023-10-09T03:41:57;19.60;99.90
44271;DHT22;29963;44.594;11.368;2023-10-09T03:44:30;19.50;99.90
44271;DHT22;29963;44.594;11.368;2023-10-09T03:46:59;19.50;99.90
44271;DHT22;29963;44.594;11.368;2023-10-09T03:49:24;19.50;99.90
44271;DHT22;29963;44.594;11.368;2023-10-09T03:51:52;19.40;99.90
44271;DHT22;29963;44.594;11.368;2023-10-09T03:54:18;19.40;99.90
44271;DHT22;29963;44.594;11.368;2023-10-09T03:56:48;19.40;99.90
44271;DHT22;29963;44.594;11.368;2023-10-09T03:59:19;19.40;99.90
44271;DHT22;29963;44.594;11.368;2023-10-09T04:01:48;19.40;99.90
44271;DHT22;29963;44.594;11.368;2023-10-09T04:04:16;19.30;99.90
44271;DHT22;29963;44.594;11.368;2023-10-09T04:06:42;19.30;99.90
44271;DHT22;29963;44.594;11.368;2023-10-09T04:09:10;19.40;99.90
44271;DHT22;29963;44.594;11.368;2023-10-09T04:11:52;19.50;99.90
44271;DHT22;29963;44.594;11.368;2023-10-09T04:14:36;19.50;99.90
44271;DHT22;29963;44.594;11.368;2023-10-09T04:17:09;19.60;99.90
44271;DHT22;29963;44.594;11.368;2023-10-09T04:19:50;19.50;99.90
44271;DHT22;29963;44.594;11.368;2023-10-09T04:22:38;19.50;99.90
44271;DHT22;29963;44.594;11.368;2023-10-09T04:25:26;19.60;99.90
44271;DHT22;29963;44.594;11.368;2023-10-09T04:27:55;19.60;99.90
44271;DHT22;29963;44.594;11.368;2023-10-09T04:30:40;19.60;99.90
44271;DHT22;29963;44.594;11.368;2023-10-09T04:33:08;19.60;99.90
44271;DHT22;29963;44.594;11.368;2023-10-09T04:36:04;19.60;99.90
44271;DHT22;29963;44.594;11.368;2023-10-09T04:38:46;19.60;99.90
44271;DHT22;29963;44.594;11.368;2023-10-09T04:41:30;19.60;99.90
44271;DHT22;29963;44.594;11.368;2023-10-09T04:44:19;19.60;99.90
44271;DHT22;29963;44.594;11.368;2023-10-09T04:46:49;19.60;99.90
44271;DHT22;29963;44.594;11.368;2023-10-09T04:49:40;19.60;99.90
44271;DHT22;29963;44.594;11.368;2023-10-09T04:52:39;19.60;99.90
44271;DHT22;29963;44.594;11.368;2023-10-09T04:55:05;19.70;99.90
44271;DHT22;29963;44.594;11.368;2023-10-09T04:57:37;19.60;99.90
44271;DHT22;29963;44.594;11.368;2023-10-09T05:00:15;19.60;99.90
44271;DHT22;29963;44.594;11.368;2023-10-09T05:03:02;19.50;99.90
44271;DHT22;29963;44.594;11.368;2023-10-09T05:05:36;19.40;99.90
44271;DHT22;29963;44.594;11.368;2023-10-09T05:10:50;19.40;99.90
44271;DHT22;29963;44.594;11.368;2023-10-09T05:13:26;19.40;99.90
44271;DHT22;29963;44.594;11.368;2023-10-09T05:16:07;19.40;99.90
44271;DHT22;29963;44.594;11.368;2023-10-09T05:18:39;19.40;99.90
44271;DHT22;29963;44.594;11.368;2023-10-09T05:21:05;19.40;99.90
44271;DHT22;29963;44.594;11.368;2023-10-09T05:24:04;19.40;99.90
44271;DHT22;29963;44.594;11.368;2023-10-09T05:26:48;19.40;99.90
44271;DHT22;29963;44.594;11.368;2023-10-09T05:29:20;19.40;99.90
44271;DHT22;29963;44.594;11.368;2023-10-09T05:32:09;19.50;99.90
44271;DHT22;29963;44.594;11.368;2023-10-09T05:34:38;19.50;99.90
44271;DHT22;29963;44.594;11.368;2023-10-09T05:37:22;19.50;99.90
44271;DHT22;29963;44.594;11.368;2023-10-09T05:39:51;19.40;99.90
44271;DHT22;29963;44.594;11.368;2023-10-09T05:42:26;19.40;99.90
44271;DHT22;29963;44.594;11.368;2023-10-09T05:45:14;19.40;99.90
44271;DHT22;29963;44.594;11.368;2023-10-09T05:47:50;19.50;99.90
44271;DHT22;29963;44.594;11.368;2023-10-09T05:50:29;19.50;99.90
44271;DHT22;29963;44.594;11.368;2023-10-09T05:52:57;19.60;99.90
44271;DHT22;29963;44.594;11.368;2023-10-09T05:55:27;19.60;99.90
44271;DHT22;29963;44.594;11.368;2023-10-09T05:58:12;19.70;99.90
44271;DHT22;29963;44.594;11.368;2023-10-09T06:00:57;19.80;99.90
44271;DHT22;29963;44.594;11.368;2023-10-09T06:03:31;19.80;99.90
44271;DHT22;29963;44.594;11.368;2023-10-09T06:06:36;19.80;99.90
44271;DHT22;29963;44.594;11.368;2023-10-09T06:09:12;19.90;99.90
44271;DHT22;29963;44.594;11.368;2023-10-09T06:11:38;20.00;99.90
44271;DHT22;29963;44.594;11.368;2023-10-09T06:14:05;20.10;99.90
44271;DHT22;29963;44.594;11.368;2023-10-09T06:16:44;20.10;99.90
44271;DHT22;29963;44.594;11.368;2023-10-09T06:19:26;20.20;99.90
44271;DHT22;29963;44.594;11.368;2023-10-09T06:21:56;20.20;99.90
44271;DHT22;29963;44.594;11.368;2023-10-09T06:24:37;20.30;99.90
44271;DHT22;29963;44.594;11.368;2023-10-09T06:27:21;20.40;99.90
44271;DHT22;29963;44.594;11.368;2023-10-09T06:29:56;20.50;99.90
44271;DHT22;29963;44.594;11.368;2023-10-09T06:32:44;20.60;99.90
44271;DHT22;29963;44.594;11.368;2023-10-09T06:35:45;20.70;99.90
44271;DHT22;29963;44.594;11.368;2023-10-09T06:38:19;20.70;99.90
44271;DHT22;29963;44.594;11.368;2023-10-09T06:40:50;20.80;99.90
44271;DHT22;29963;44.594;11.368;2023-10-09T06:43:31;20.80;99.90
44271;DHT22;29963;44.594;11.368;2023-10-09T06:46:02;20.80;99.90
44271;DHT22;29963;44.594;11.368;2023-10-09T06:48:46;20.90;99.90
44271;DHT22;29963;44.594;11.368;2023-10-09T06:51:21;20.90;99.90
44271;DHT22;29963;44.594;11.368;2023-10-09T06:53:53;21.00;99.90
44271;DHT22;29963;44.594;11.368;2023-10-09T06:56:23;21.10;99.90
44271;DHT22;29963;44.594;11.368;2023-10-09T06:58:55;21.10;99.90
44271;DHT22;29963;44.594;11.368;2023-10-09T07:01:23;21.10;99.90
44271;DHT22;29963;44.594;11.368;2023-10-09T07:04:05;21.20;99.90
44271;DHT22;29963;44.594;11.368;2023-10-09T07:06:56;21.20;99.90
44271;DHT22;29963;44.594;11.368;2023-10-09T07:09:25;21.30;99.90
44271;DHT22;29963;44.594;11.368;2023-10-09T07:12:10;21.40;99.90
44271;DHT22;29963;44.594;11.368;2023-10-09T07:14:46;21.40;99.90
44271;DHT22;29963;44.594;11.368;2023-10-09T07:17:12;21.50;99.90
44271;DHT22;29963;44.594;11.368;2023-10-09T07:19:56;21.50;99.90
44271;DHT22;29963;44.594;11.368;2023-10-09T07:22:34;21.50;99.90
44271;DHT22;29963;44.594;11.368;2023-10-09T07:25:05;21.60;99.90
44271;DHT22;29963;44.594;11.368;2023-10-09T07:28:03;21.60;99.90
44271;DHT22;29963;44.594;11.368;2023-10-09T07:30:44;21.60;99.90
44271;DHT22;29963;44.594;11.368;2023-10-09T07:33:09;21.60;99.90
44271;DHT22;29963;44.594;11.368;2023-10-09T07:35:38;21.70;99.90
44271;DHT22;29963;44.594;11.368;2023-10-09T07:38:21;21.60;99.90
44271;DHT22;29963;44.594;11.368;2023-10-09T07:41:01;21.60;99.90
44271;DHT22;29963;44.594;11.368;2023-10-09T07:43:28;21.70;99.90
44271;DHT22;29963;44.594;11.368;2023-10-09T07:46:02;21.70;99.90
44271;DHT22;29963;44.594;11.368;2023-10-09T07:48:31;21.80;99.90
44271;DHT22;29963;44.594;11.368;2023-10-09T07:51:16;21.90;99.90
44271;DHT22;29963;44.594;11.368;2023-10-09T07:53:42;21.90;99.90
44271;DHT22;29963;44.594;11.368;2023-10-09T07:56:11;21.90;99.90
44271;DHT22;29963;44.594;11.368;2023-10-09T07:58:39;21.90;99.90
44271;DHT22;29963;44.594;11.368;2023-10-09T08:01:12;22.00;99.90
44271;DHT22;29963;44.594;11.368;2023-10-09T08:03:56;22.10;99.90
44271;DHT22;29963;44.594;11.368;2023-10-09T08:06:39;22.20;99.90
44271;DHT22;29963;44.594;11.368;2023-10-09T08:09:23;22.30;99.90
44271;DHT22;29963;44.594;11.368;2023-10-09T08:12:08;22.40;99.90
44271;DHT22;29963;44.594;11.368;2023-10-09T08:14:52;22.50;99.90
44271;DHT22;29963;44.594;11.368;2023-10-09T08:17:24;22.50;99.90
44271;DHT22;29963;44.594;11.368;2023-10-09T08:19:53;22.60;99.90
44271;DHT22;29963;44.594;11.368;2023-10-09T08:22:37;22.70;99.90
44271;DHT22;29963;44.594;11.368;2023-10-09T08:25:12;22.80;99.90
44271;DHT22;29963;44.594;11.368;2023-10-09T08:28:00;22.70;99.90
44271;DHT22;29963;44.594;11.368;2023-10-09T08:30:47;22.80;99.90
44271;DHT22;29963;44.594;11.368;2023-10-09T08:33:19;22.80;99.90
44271;DHT22;29963;44.594;11.368;2023-10-09T08:35:50;22.90;99.90
44271;DHT22;29963;44.594;11.368;2023-10-09T08:38:17;23.00;99.90
44271;DHT22;29963;44.594;11.368;2023-10-09T08:40:50;23.10;99.90
44271;DHT22;29963;44.594;11.368;2023-10-09T08:43:17;23.20;99.90
44271;DHT22;29963;44.594;11.368;2023-10-09T08:46:09;23.30;99.90
44271;DHT22;29963;44.594;11.368;2023-10-09T08:48:38;23.40;99.90
44271;DHT22;29963;44.594;11.368;2023-10-09T08:51:05;23.40;99.90
44271;DHT22;29963;44.594;11.368;2023-10-09T08:53:31;23.60;99.90
44271;DHT22;29963;44.594;11.368;2023-10-09T08:55:58;23.60;99.90
44271;DHT22;29963;44.594;11.368;2023-10-09T08:58:24;23.70;99.90
44271;DHT22;29963;44.594;11.368;2023-10-09T09:01:02;23.80;99.90
44271;DHT22;29963;44.594;11.368;2023-10-09T09:03:40;23.80;99.90
44271;DHT22;29963;44.594;11.368;2023-10-09T09:06:09;24.00;99.90
44271;DHT22;29963;44.594;11.368;2023-10-09T09:08:34;24.00;99.90
44271;DHT22;29963;44.594;11.368;2023-10-09T09:11:10;24.10;99.90
44271;DHT22;29963;44.594;11.368;2023-10-09T09:13:47;24.20;99.90
44271;DHT22;29963;44.594;11.368;2023-10-09T09:16:23;24.30;99.90
44271;DHT22;29963;44.594;11.368;2023-10-09T09:18:56;24.40;99.90
44271;DHT22;29963;44.594;11.368;2023-10-09T09:21:32;24.50;99.90
44271;DHT22;29963;44.594;11.368;2023-10-09T09:24:05;24.50;99.90
44271;DHT22;29963;44.594;11.368;2023-10-09T09:26:41;24.60;99.90
44271;DHT22;29963;44.594;11.368;2023-10-09T09:29:24;24.60;99.90
44271;DHT22;29963;44.594;11.368;2023-10-09T09:32:06;24.70;99.90
44271;DHT22;29963;44.594;11.368;2023-10-09T09:34:46;24.80;99.90
44271;DHT22;29963;44.594;11.368;2023-10-09T09:37:19;24.80;99.90
44271;DHT22;29963;44.594;11.368;2023-10-09T09:39:47;24.90;99.90
44271;DHT22;29963;44.594;11.368;2023-10-09T09:42:15;25.00;99.90
44271;DHT22;29963;44.594;11.368;2023-10-09T09:44:51;25.10;99.90
44271;DHT22;29963;44.594;11.368;2023-10-09T09:47:17;25.20;99.90
44271;DHT22;29963;44.594;11.368;2023-10-09T09:49:56;25.30;99.90
44271;DHT22;29963;44.594;11.368;2023-10-09T09:52:38;25.30;99.90
44271;DHT22;29963;44.594;11.368;2023-10-09T09:55:10;25.40;99.50
44271;DHT22;29963;44.594;11.368;2023-10-09T09:57:47;25.40;99.80
44271;DHT22;29963;44.594;11.368;2023-10-09T10:00:19;25.40;99.60
44271;DHT22;29963;44.594;11.368;2023-10-09T10:03:08;25.50;99.70
44271;DHT22;29963;44.594;11.368;2023-10-09T10:05:35;25.60;99.50
44271;DHT22;29963;44.594;11.368;2023-10-09T10:08:03;25.70;99.40
44271;DHT22;29963;44.594;11.368;2023-10-09T10:10:40;25.70;99.30
44271;DHT22;29963;44.594;11.368;2023-10-09T10:21:41;26.00;98.60
44271;DHT22;29963;44.594;11.368;2023-10-09T10:29:43;25.20;97.30
44271;DHT22;29963;44.594;11.368;2023-10-09T10:32:11;26.50;97.40
44271;DHT22;29963;44.594;11.368;2023-10-09T10:37:15;26.60;96.90
44271;DHT22;29963;44.594;11.368;2023-10-09T10:39:53;26.60;96.20
44271;DHT22;29963;44.594;11.368;2023-10-09T10:42:25;26.70;96.30
44271;DHT22;29963;44.594;11.368;2023-10-09T10:45:02;26.80;96.20
44271;DHT22;29963;44.594;11.368;2023-10-09T10:47:28;26.90;96.00
44271;DHT22;29963;44.594;11.368;2023-10-09T10:50:02;26.90;96.10
44271;DHT22;29963;44.594;11.368;2023-10-09T10:53:15;26.90;95.80
44271;DHT22;29963;44.594;11.368;2023-10-09T10:56:01;26.90;95.40
44271;DHT22;29963;44.594;11.368;2023-10-09T10:58:39;26.90;95.40
44271;DHT22;29963;44.594;11.368;2023-10-09T11:01:34;27.00;94.80
44271;DHT22;29963;44.594;11.368;2023-10-09T11:04:23;27.00;94.60
44271;DHT22;29963;44.594;11.368;2023-10-09T11:07:02;27.00;94.20
44271;DHT22;29963;44.594;11.368;2023-10-09T11:15:16;27.20;93.30
44271;DHT22;29963;44.594;11.368;2023-10-09T11:18:07;27.30;92.80
44271;DHT22;29963;44.594;11.368;2023-10-09T11:20:34;27.30;92.90
44271;DHT22;29963;44.594;11.368;2023-10-09T11:23:01;27.30;93.40
44271;DHT22;29963;44.594;11.368;2023-10-09T11:25:40;27.40;93.50
44271;DHT22;29963;44.594;11.368;2023-10-09T11:28:25;27.40;93.30
44271;DHT22;29963;44.594;11.368;2023-10-09T11:31:06;27.40;93.60
44271;DHT22;29963;44.594;11.368;2023-10-09T11:33:51;27.50;93.30
44271;DHT22;29963;44.594;11.368;2023-10-09T11:36:18;27.60;93.20
44271;DHT22;29963;44.594;11.368;2023-10-09T11:38:57;27.60;93.40
44271;DHT22;29963;44.594;11.368;2023-10-09T11:41:43;27.60;93.60
44271;DHT22;29963;44.594;11.368;2023-10-09T11:44:10;27.60;93.70
44271;DHT22;29963;44.594;11.368;2023-10-09T11:46:58;27.70;93.10
44271;DHT22;29963;44.594;11.368;2023-10-09T11:49:56;27.80;92.80
44271;DHT22;29963;44.594;11.368;2023-10-09T11:52:28;28.00;91.80
44271;DHT22;29963;44.594;11.368;2023-10-09T11:54:58;28.00;92.00
44271;DHT22;29963;44.594;11.368;2023-10-09T11:57:27;28.00;92.00
44271;DHT22;29963;44.594;11.368;2023-10-09T12:00:03;28.10;92.30
44271;DHT22;29963;44.594;11.368;2023-10-09T12:02:52;28.10;92.30
44271;DHT22;29963;44.594;11.368;2023-10-09T12:05:18;28.10;91.10
44271;DHT22;29963;44.594;11.368;2023-10-09T12:07:47;28.10;90.60
44271;DHT22;29963;44.594;11.368;2023-10-09T12:10:21;28.10;91.00
44271;DHT22;29963;44.594;11.368;2023-10-09T12:12:55;28.20;89.60
44271;DHT22;29963;44.594;11.368;2023-10-09T12:15:26;28.30;89.30
44271;DHT22;29963;44.594;11.368;2023-10-09T12:18:05;28.30;89.60
44271;DHT22;29963;44.594;11.368;2023-10-09T12:20:35;28.50;87.20
44271;DHT22;29963;44.594;11.368;2023-10-09T12:23:04;28.60;88.60
44271;DHT22;29963;44.594;11.368;2023-10-09T12:25:31;28.60;87.40
44271;DHT22;29963;44.594;11.368;2023-10-09T12:27:58;28.70;86.80
44271;DHT22;29963;44.594;11.368;2023-10-09T12:30:24;28.80;86.40
44271;DHT22;29963;44.594;11.368;2023-10-09T12:33:01;28.90;86.00
44271;DHT22;29963;44.594;11.368;2023-10-09T12:35:28;28.90;86.10
44271;DHT22;29963;44.594;11.368;2023-10-09T12:37:56;29.00;86.50
44271;DHT22;29963;44.594;11.368;2023-10-09T12:40:23;29.10;85.10
44271;DHT22;29963;44.594;11.368;2023-10-09T12:42:52;29.10;85.70
44271;DHT22;29963;44.594;11.368;2023-10-09T12:45:19;29.10;86.70
44271;DHT22;29963;44.594;11.368;2023-10-09T12:47:54;29.20;87.20
44271;DHT22;29963;44.594;11.368;2023-10-09T12:50:28;29.30;84.50
44271;DHT22;29963;44.594;11.368;2023-10-09T12:52:55;29.30;85.00
44271;DHT22;29963;44.594;11.368;2023-10-09T12:55:21;29.40;84.50
44271;DHT22;29963;44.594;11.368;2023-10-09T12:57:47;29.50;84.10
44271;DHT22;29963;44.594;11.368;2023-10-09T13:00:13;29.60;83.80
44271;DHT22;29963;44.594;11.368;2023-10-09T13:02:51;29.60;84.40
44271;DHT22;29963;44.594;11.368;2023-10-09T13:05:17;29.70;85.00
44271;DHT22;29963;44.594;11.368;2023-10-09T13:07:52;29.80;82.10
44271;DHT22;29963;44.594;11.368;2023-10-09T13:10:19;29.90;81.40
44271;DHT22;29963;44.594;11.368;2023-10-09T13:12:46;30.00;80.50
44271;DHT22;29963;44.594;11.368;2023-10-09T13:15:11;30.10;81.10
44271;DHT22;29963;44.594;11.368;2023-10-09T13:17:38;30.20;82.30
44271;DHT22;29963;44.594;11.368;2023-10-09T13:20:05;30.30;80.40
44271;DHT22;29963;44.594;11.368;2023-10-09T13:22:42;30.40;79.00
44271;DHT22;29963;44.594;11.368;2023-10-09T13:25:09;30.50;80.10
44271;DHT22;29963;44.594;11.368;2023-10-09T13:27:44;30.60;79.10
44271;DHT22;29963;44.594;11.368;2023-10-09T13:30:20;30.60;78.50
44271;DHT22;29963;44.594;11.368;2023-10-09T13:32:51;30.70;79.50
44271;DHT22;29963;44.594;11.368;2023-10-09T13:35:20;30.80;78.20
44271;DHT22;29963;44.594;11.368;2023-10-09T13:37:53;31.00;78.70
44271;DHT22;29963;44.594;11.368;2023-10-09T13:40:22;31.10;77.80
44271;DHT22;29963;44.594;11.368;2023-10-09T13:42:55;31.20;78.00
44271;DHT22;29963;44.594;11.368;2023-10-09T13:45:27;31.50;76.80
44271;DHT22;29963;44.594;11.368;2023-10-09T13:47:57;31.60;77.60
44271;DHT22;29963;44.594;11.368;2023-10-09T13:50:26;31.70;76.90
44271;DHT22;29963;44.594;11.368;2023-10-09T13:52:58;31.90;75.10
44271;DHT22;29963;44.594;11.368;2023-10-09T13:55:24;31.90;74.10
44271;DHT22;29963;44.594;11.368;2023-10-09T13:57:57;32.00;73.90
44271;DHT22;29963;44.594;11.368;2023-10-09T14:00:23;32.20;73.50
44271;DHT22;29963;44.594;11.368;2023-10-09T14:03:02;32.20;72.40
44271;DHT22;29963;44.594;11.368;2023-10-09T14:05:37;32.30;72.50
44271;DHT22;29963;44.594;11.368;2023-10-09T14:08:10;32.40;72.00
44271;DHT22;29963;44.594;11.368;2023-10-09T14:10:37;32.50;72.30
44271;DHT22;29963;44.594;11.368;2023-10-09T14:13:04;32.50;72.40
44271;DHT22;29963;44.594;11.368;2023-10-09T14:15:37;32.70;72.40
44271;DHT22;29963;44.594;11.368;2023-10-09T14:18:06;32.90;71.80
44271;DHT22;29963;44.594;11.368;2023-10-09T14:20:34;33.30;70.90
44271;DHT22;29963;44.594;11.368;2023-10-09T14:23:00;34.00;69.90
44271;DHT22;29963;44.594;11.368;2023-10-09T14:25:36;34.50;67.80
44271;DHT22;29963;44.594;11.368;2023-10-09T14:28:11;35.00;66.50
44271;DHT22;29963;44.594;11.368;2023-10-09T14:30:37;35.70;65.90
44271;DHT22;29963;44.594;11.368;2023-10-09T14:33:10;36.40;63.00
44271;DHT22;29963;44.594;11.368;2023-10-09T14:35:41;36.70;61.80
44271;DHT22;29963;44.594;11.368;2023-10-09T14:38:08;36.90;60.80
44271;DHT22;29963;44.594;11.368;2023-10-09T14:40:44;37.20;59.70
44271;DHT22;29963;44.594;11.368;2023-10-09T14:43:11;36.90;58.30
44271;DHT22;29963;44.594;11.368;2023-10-09T14:45:49;36.80;58.30
44271;DHT22;29963;44.594;11.368;2023-10-09T14:48:19;36.70;58.60
44271;DHT22;29963;44.594;11.368;2023-10-09T14:50:50;36.90;59.00
44271;DHT22;29963;44.594;11.368;2023-10-09T14:53:22;37.30;58.40
44271;DHT22;29963;44.594;11.368;2023-10-09T14:55:58;37.30;57.00
44271;DHT22;29963;44.594;11.368;2023-10-09T14:58:29;37.20;58.10
44271;DHT22;29963;44.594;11.368;2023-10-09T15:00:56;37.10;57.30
44271;DHT22;29963;44.594;11.368;2023-10-09T15:03:22;36.90;56.80
44271;DHT22;29963;44.594;11.368;2023-10-09T15:05:51;36.80;56.20
44271;DHT22;29963;44.594;11.368;2023-10-09T15:08:17;36.30;57.00
44271;DHT22;29963;44.594;11.368;2023-10-09T15:10:46;36.20;58.00
44271;DHT22;29963;44.594;11.368;2023-10-09T15:13:13;36.30;58.00
44271;DHT22;29963;44.594;11.368;2023-10-09T15:15:43;36.50;57.60
44271;DHT22;29963;44.594;11.368;2023-10-09T15:18:09;36.50;58.10
44271;DHT22;29963;44.594;11.368;2023-10-09T15:20:38;36.60;57.80
44271;DHT22;29963;44.594;11.368;2023-10-09T15:23:06;36.70;57.10
44271;DHT22;29963;44.594;11.368;2023-10-09T15:25:32;36.70;57.20
44271;DHT22;29963;44.594;11.368;2023-10-09T15:28:00;36.50;56.10
44271;DHT22;29963;44.594;11.368;2023-10-09T15:30:25;36.30;57.10
44271;DHT22;29963;44.594;11.368;2023-10-09T15:32:53;36.30;57.30
44271;DHT22;29963;44.594;11.368;2023-10-09T15:35:22;36.30;57.00
44271;DHT22;29963;44.594;11.368;2023-10-09T15:37:48;36.30;57.40
44271;DHT22;29963;44.594;11.368;2023-10-09T15:40:20;36.20;57.70
44271;DHT22;29963;44.594;11.368;2023-10-09T15:42:50;36.30;57.90
44271;DHT22;29963;44.594;11.368;2023-10-09T15:45:19;36.70;58.20
44271;DHT22;29963;44.594;11.368;2023-10-09T15:47:47;36.90;58.10
44271;DHT22;29963;44.594;11.368;2023-10-09T15:50:13;36.80;57.60
44271;DHT22;29963;44.594;11.368;2023-10-09T15:52:40;36.70;57.30
44271;DHT22;29963;44.594;11.368;2023-10-09T15:55:06;36.70;57.50
44271;DHT22;29963;44.594;11.368;2023-10-09T15:57:42;36.60;57.70
44271;DHT22;29963;44.594;11.368;2023-10-09T16:00:08;36.40;57.70
44271;DHT22;29963;44.594;11.368;2023-10-09T16:02:44;36.40;58.00
44271;DHT22;29963;44.594;11.368;2023-10-09T16:05:09;36.30;58.30
44271;DHT22;29963;44.594;11.368;2023-10-09T16:07:38;35.90;58.80
44271;DHT22;29963;44.594;11.368;2023-10-09T16:10:08;35.60;59.40
44271;DHT22;29963;44.594;11.368;2023-10-09T16:12:43;35.40;60.10
44271;DHT22;29963;44.594;11.368;2023-10-09T16:15:10;35.10;60.30
44271;DHT22;29963;44.594;11.368;2023-10-09T16:17:36;34.80;60.60
44271;DHT22;29963;44.594;11.368;2023-10-09T16:20:05;34.50;61.20